TAM9403 SAZS-SBGL
Flight info
| Callsign | TAM9403 |
|---|---|
| Flight time | 3h 43m |
| Altitude | 37000 |
| Route | LIMAY2C LIMAY UW26 NEU UT655 ASADA UM424 CRR UM540 ITBEB UN857 AKNUB |
| Aircraft | A321/M-SDE3FGHIRWY/LB1 |
Departure
| Time | 2026-04-25 18:34 |
|---|---|
| Airport | Teniente Luis Candelaria International Airport (SAZS) |
Arrival
| Time | 2026-04-25 22:17 |
|---|---|
| Airport | Rio Galeão – Tom Jobim International Airport (SBGL) |
| Time | Latitude | Longitude | Altitude | Speed | Heading |
|---|---|---|---|---|---|
| 2026-04-25 18:03 | -41.14672 | -71.16193 | 2749 ft | 0 kts | 25° |
| 2026-04-25 18:25 | -41.14680 | -71.16198 | 2749 ft | 4 kts | 30° |
| 2026-04-25 18:25 | -41.14700 | -71.16220 | 2750 ft | 4 kts | 56° |
| 2026-04-25 18:25 | -41.14711 | -71.16251 | 2752 ft | 4 kts | 79° |
| 2026-04-25 18:25 | -41.14714 | -71.16283 | 2750 ft | 0 kts | 79° |
| 2026-04-25 18:26 | -41.14714 | -71.16284 | 2750 ft | 0 kts | 79° |
| 2026-04-25 18:27 | -41.14718 | -71.16275 | 2751 ft | 2 kts | 122° |
| 2026-04-25 18:28 | -41.14743 | -71.16254 | 2749 ft | 5 kts | 149° |
| 2026-04-25 18:28 | -41.14779 | -71.16223 | 2749 ft | 8 kts | 143° |
| 2026-04-25 18:28 | -41.14813 | -71.16159 | 2749 ft | 10 kts | 116° |
| 2026-04-25 18:29 | -41.14883 | -71.15964 | 2751 ft | 13 kts | 116° |
| 2026-04-25 18:29 | -41.14923 | -71.15849 | 2749 ft | 14 kts | 116° |
| 2026-04-25 18:30 | -41.15065 | -71.15441 | 2749 ft | 18 kts | 116° |
| 2026-04-25 18:30 | -41.15118 | -71.15286 | 2749 ft | 19 kts | 110° |
| 2026-04-25 18:30 | -41.15163 | -71.15150 | 2749 ft | 20 kts | 113° |
| 2026-04-25 18:30 | -41.15224 | -71.14984 | 2749 ft | 20 kts | 115° |
| 2026-04-25 18:31 | -41.15281 | -71.14822 | 2749 ft | 17 kts | 114° |
| 2026-04-25 18:31 | -41.15332 | -71.14675 | 2750 ft | 18 kts | 114° |
| 2026-04-25 18:31 | -41.15383 | -71.14531 | 2752 ft | 13 kts | 115° |
| 2026-04-25 18:31 | -41.15449 | -71.14472 | 2749 ft | 9 kts | 189° |
| 2026-04-25 18:32 | -41.15457 | -71.14476 | 2749 ft | 0 kts | 198° |
| 2026-04-25 18:32 | -41.15460 | -71.14478 | 2749 ft | 1 kts | 199° |
| 2026-04-25 18:32 | -41.15471 | -71.14483 | 2749 ft | 2 kts | 201° |
| 2026-04-25 18:32 | -41.15493 | -71.14496 | 2751 ft | 6 kts | 205° |
| 2026-04-25 18:33 | -41.15527 | -71.14581 | 2749 ft | 13 kts | 290° |
| 2026-04-25 18:33 | -41.15461 | -71.14781 | 2750 ft | 53 kts | 295° |
| 2026-04-25 18:33 | -41.15205 | -71.15514 | 2752 ft | 119 kts | 295° |
| 2026-04-25 18:33 | -41.14794 | -71.16705 | 2991 ft | 154 kts | 294° |
| 2026-04-25 18:34 | -41.14349 | -71.18004 | 3781 ft | 153 kts | 290° |
| 2026-04-25 18:34 | -41.13905 | -71.19326 | 4502 ft | 162 kts | 290° |
| 2026-04-25 18:34 | -41.13422 | -71.20772 | 4733 ft | 182 kts | 290° |
| 2026-04-25 18:34 | -41.12879 | -71.22405 | 4935 ft | 205 kts | 290° |
| 2026-04-25 18:35 | -41.12280 | -71.24193 | 5421 ft | 215 kts | 291° |
| 2026-04-25 18:35 | -41.11661 | -71.26019 | 6122 ft | 219 kts | 290° |
| 2026-04-25 18:35 | -41.11031 | -71.27870 | 6817 ft | 221 kts | 289° |
| 2026-04-25 18:35 | -41.10397 | -71.29724 | 7541 ft | 221 kts | 288° |
| 2026-04-25 18:36 | -41.09762 | -71.31580 | 8260 ft | 221 kts | 287° |
| 2026-04-25 18:36 | -41.09125 | -71.33441 | 8969 ft | 221 kts | 287° |
| 2026-04-25 18:36 | -41.08487 | -71.35293 | 9690 ft | 222 kts | 288° |
| 2026-04-25 18:36 | -41.07412 | -71.36879 | 10245 ft | 252 kts | 320° |
| 2026-04-25 18:37 | -41.05605 | -71.37442 | 10718 ft | 289 kts | 355° |
| 2026-04-25 18:37 | -41.03619 | -71.36570 | 11222 ft | 316 kts | 30° |
| 2026-04-25 18:37 | -41.02113 | -71.34402 | 11728 ft | 328 kts | 63° |
| 2026-04-25 18:37 | -41.01376 | -71.31546 | 12310 ft | 329 kts | 81° |
| 2026-04-25 18:38 | -41.00925 | -71.28574 | 12848 ft | 331 kts | 82° |
| 2026-04-25 18:38 | -41.00465 | -71.25574 | 13402 ft | 333 kts | 80° |
| 2026-04-25 18:38 | -40.99888 | -71.22596 | 13972 ft | 336 kts | 72° |
| 2026-04-25 18:38 | -40.98986 | -71.19727 | 14504 ft | 339 kts | 64° |
| 2026-04-25 18:39 | -40.97879 | -71.16959 | 15031 ft | 341 kts | 59° |
| 2026-04-25 18:39 | -40.96677 | -71.14244 | 15541 ft | 343 kts | 58° |
| 2026-04-25 18:39 | -40.95445 | -71.11526 | 16059 ft | 346 kts | 59° |
| 2026-04-25 18:39 | -40.94209 | -71.08761 | 16351 ft | 357 kts | 59° |
| 2026-04-25 18:40 | -40.92942 | -71.05848 | 16489 ft | 374 kts | 60° |
| 2026-04-25 18:40 | -40.91642 | -71.02779 | 16641 ft | 391 kts | 61° |
| 2026-04-25 18:40 | -40.90306 | -70.99573 | 16778 ft | 407 kts | 61° |
| 2026-04-25 18:40 | -40.88922 | -70.96223 | 16908 ft | 423 kts | 61° |
| 2026-04-25 18:41 | -40.87493 | -70.92760 | 17062 ft | 437 kts | 61° |
| 2026-04-25 18:41 | -40.86014 | -70.89181 | 17245 ft | 448 kts | 61° |
| 2026-04-25 18:41 | -40.84525 | -70.85595 | 17714 ft | 452 kts | 60° |
| 2026-04-25 18:41 | -40.82991 | -70.81913 | 18263 ft | 454 kts | 60° |
| 2026-04-25 18:42 | -40.81479 | -70.78293 | 18714 ft | 457 kts | 60° |
| 2026-04-25 18:42 | -40.80958 | -70.77049 | 18873 ft | 458 kts | 60° |
| 2026-04-25 18:42 | -40.78358 | -70.70855 | 19569 ft | 463 kts | 60° |
| 2026-04-25 18:42 | -40.76810 | -70.67178 | 19967 ft | 467 kts | 60° |
| 2026-04-25 18:43 | -40.75187 | -70.63445 | 20397 ft | 469 kts | 57° |
| 2026-04-25 18:43 | -40.73237 | -70.59999 | 20763 ft | 472 kts | 47° |
| 2026-04-25 18:43 | -40.71011 | -70.56803 | 21151 ft | 475 kts | 45° |
| 2026-04-25 18:43 | -40.68756 | -70.53596 | 21556 ft | 478 kts | 45° |
| 2026-04-25 18:44 | -40.66500 | -70.50382 | 22013 ft | 479 kts | 45° |
| 2026-04-25 18:44 | -40.64227 | -70.47143 | 22403 ft | 482 kts | 45° |
| 2026-04-25 18:44 | -40.61951 | -70.43901 | 22768 ft | 485 kts | 45° |
| 2026-04-25 18:44 | -40.59653 | -70.40629 | 23138 ft | 488 kts | 45° |
| 2026-04-25 18:45 | -40.57334 | -70.37334 | 23483 ft | 491 kts | 45° |
| 2026-04-25 18:45 | -40.55003 | -70.34034 | 23815 ft | 494 kts | 45° |
| 2026-04-25 18:45 | -40.52659 | -70.30722 | 24125 ft | 496 kts | 45° |
| 2026-04-25 18:45 | -40.50303 | -70.27395 | 24442 ft | 498 kts | 45° |
| 2026-04-25 18:46 | -40.47936 | -70.24052 | 24755 ft | 501 kts | 45° |
| 2026-04-25 18:46 | -40.45558 | -70.20689 | 25041 ft | 503 kts | 45° |
| 2026-04-25 18:46 | -40.43167 | -70.17316 | 25375 ft | 505 kts | 45° |
| 2026-04-25 18:46 | -40.40801 | -70.13990 | 25682 ft | 506 kts | 45° |
| 2026-04-25 18:47 | -40.38361 | -70.10562 | 25996 ft | 509 kts | 45° |
| 2026-04-25 18:47 | -40.35941 | -70.07167 | 26291 ft | 511 kts | 45° |
| 2026-04-25 18:47 | -40.33541 | -70.03809 | 26559 ft | 513 kts | 45° |
| 2026-04-25 18:47 | -40.31093 | -70.00385 | 26833 ft | 515 kts | 45° |
| 2026-04-25 18:48 | -40.28640 | -69.96947 | 27141 ft | 518 kts | 45° |
| 2026-04-25 18:48 | -40.26177 | -69.93492 | 27438 ft | 520 kts | 45° |
| 2026-04-25 18:48 | -40.23705 | -69.90024 | 27724 ft | 522 kts | 45° |
| 2026-04-25 18:48 | -40.21221 | -69.86549 | 28020 ft | 523 kts | 45° |
| 2026-04-25 18:49 | -40.18732 | -69.83082 | 28418 ft | 523 kts | 44° |
| 2026-04-25 18:49 | -40.16226 | -69.79600 | 28699 ft | 526 kts | 44° |
| 2026-04-25 18:49 | -40.13721 | -69.76116 | 29015 ft | 526 kts | 44° |
| 2026-04-25 18:49 | -40.11208 | -69.72627 | 29395 ft | 527 kts | 44° |
| 2026-04-25 18:50 | -40.08705 | -69.69150 | 29786 ft | 526 kts | 44° |
| 2026-04-25 18:50 | -40.06196 | -69.65667 | 30137 ft | 526 kts | 44° |
| 2026-04-25 18:50 | -40.03685 | -69.62193 | 30462 ft | 526 kts | 44° |
| 2026-04-25 18:50 | -40.01175 | -69.58729 | 30784 ft | 525 kts | 44° |
| 2026-04-25 18:51 | -39.98658 | -69.55263 | 31118 ft | 525 kts | 44° |
| 2026-04-25 18:51 | -39.97812 | -69.54097 | 31217 ft | 525 kts | 44° |
| 2026-04-25 18:51 | -39.93649 | -69.48351 | 31735 ft | 524 kts | 44° |
| 2026-04-25 18:51 | -39.91142 | -69.44890 | 31990 ft | 524 kts | 44° |
| 2026-04-25 18:52 | -39.88644 | -69.41444 | 32286 ft | 524 kts | 44° |
| 2026-04-25 18:52 | -39.86141 | -69.37998 | 32582 ft | 524 kts | 44° |
| 2026-04-25 18:52 | -39.83630 | -69.34550 | 32884 ft | 524 kts | 44° |
| 2026-04-25 18:52 | -39.81122 | -69.31117 | 33177 ft | 523 kts | 44° |
| 2026-04-25 18:53 | -39.78619 | -69.27692 | 33466 ft | 523 kts | 44° |
| 2026-04-25 18:53 | -39.76964 | -69.25429 | 33662 ft | 522 kts | 44° |
| 2026-04-25 18:53 | -39.74454 | -69.22002 | 33951 ft | 522 kts | 44° |
| 2026-04-25 18:53 | -39.71112 | -69.17443 | 34291 ft | 520 kts | 43° |
| 2026-04-25 18:54 | -39.66981 | -69.11818 | 34794 ft | 516 kts | 43° |
| 2026-04-25 18:54 | -39.64509 | -69.08453 | 35046 ft | 515 kts | 43° |
| 2026-04-25 18:54 | -39.62040 | -69.05094 | 35225 ft | 514 kts | 43° |
| 2026-04-25 18:55 | -39.59567 | -69.01737 | 35454 ft | 513 kts | 43° |
| 2026-04-25 18:55 | -39.57104 | -68.98402 | 35670 ft | 513 kts | 43° |
| 2026-04-25 18:55 | -39.54633 | -68.95061 | 35881 ft | 513 kts | 43° |
| 2026-04-25 18:55 | -39.52161 | -68.91721 | 36081 ft | 512 kts | 43° |
| 2026-04-25 18:56 | -39.49698 | -68.88399 | 36262 ft | 512 kts | 43° |
| 2026-04-25 18:56 | -39.47230 | -68.85067 | 36459 ft | 511 kts | 43° |
| 2026-04-25 18:56 | -39.44779 | -68.81759 | 36711 ft | 509 kts | 43° |
| 2026-04-25 18:56 | -39.42324 | -68.78447 | 36909 ft | 508 kts | 42° |
| 2026-04-25 18:57 | -39.39878 | -68.75153 | 36998 ft | 509 kts | 42° |
| 2026-04-25 18:57 | -39.34962 | -68.68546 | 37004 ft | 510 kts | 42° |
| 2026-04-25 18:58 | -39.30037 | -68.61956 | 37005 ft | 511 kts | 42° |
| 2026-04-25 18:58 | -39.22626 | -68.52051 | 37020 ft | 511 kts | 42° |
| 2026-04-25 18:59 | -39.12718 | -68.38860 | 37032 ft | 512 kts | 42° |
| 2026-04-25 19:00 | -39.05260 | -68.28978 | 37055 ft | 513 kts | 42° |
| 2026-04-25 19:01 | -38.97790 | -68.19098 | 37081 ft | 514 kts | 42° |
| 2026-04-25 19:01 | -38.93514 | -68.11695 | 37079 ft | 520 kts | 60° |
| 2026-04-25 19:02 | -38.88535 | -67.99299 | 37068 ft | 521 kts | 61° |
| 2026-04-25 19:03 | -38.84085 | -67.88311 | 37054 ft | 521 kts | 61° |
| 2026-04-25 19:03 | -38.80163 | -67.78682 | 37044 ft | 521 kts | 60° |
| 2026-04-25 19:04 | -38.75127 | -67.66325 | 37039 ft | 521 kts | 61° |
| 2026-04-25 19:05 | -38.68408 | -67.49855 | 37023 ft | 522 kts | 60° |
| 2026-04-25 19:06 | -38.65030 | -67.41644 | 37026 ft | 522 kts | 60° |
| 2026-04-25 19:06 | -38.59946 | -67.29317 | 37035 ft | 522 kts | 60° |
| 2026-04-25 19:07 | -38.54847 | -67.17007 | 37044 ft | 523 kts | 60° |
| 2026-04-25 19:08 | -38.49734 | -67.04703 | 37043 ft | 523 kts | 60° |
| 2026-04-25 19:09 | -38.43471 | -66.89690 | 37040 ft | 523 kts | 60° |
| 2026-04-25 19:10 | -38.37771 | -66.76091 | 37041 ft | 523 kts | 60° |
| 2026-04-25 19:10 | -38.34334 | -66.67930 | 37040 ft | 522 kts | 60° |
| 2026-04-25 19:11 | -38.30897 | -66.59777 | 37041 ft | 522 kts | 60° |
| 2026-04-25 19:11 | -38.27461 | -66.51622 | 37043 ft | 522 kts | 60° |
| 2026-04-25 19:12 | -38.24026 | -66.43473 | 37009 ft | 522 kts | 60° |
| 2026-04-25 19:12 | -38.20588 | -66.35345 | 37026 ft | 523 kts | 59° |
| 2026-04-25 19:13 | -38.17132 | -66.27205 | 37033 ft | 523 kts | 59° |
| 2026-04-25 19:13 | -38.13671 | -66.19086 | 37041 ft | 523 kts | 59° |
| 2026-04-25 19:14 | -38.10205 | -66.10967 | 37037 ft | 523 kts | 59° |
| 2026-04-25 19:14 | -38.06740 | -66.02864 | 37037 ft | 522 kts | 59° |
| 2026-04-25 19:15 | -38.03267 | -65.94773 | 37040 ft | 522 kts | 59° |
| 2026-04-25 19:15 | -37.99791 | -65.86691 | 37037 ft | 522 kts | 59° |
| 2026-04-25 19:16 | -37.96309 | -65.78618 | 37043 ft | 521 kts | 59° |
| 2026-04-25 19:16 | -37.92833 | -65.70564 | 37041 ft | 521 kts | 59° |
| 2026-04-25 19:17 | -37.89340 | -65.62515 | 37039 ft | 521 kts | 59° |
| 2026-04-25 19:17 | -37.85870 | -65.54541 | 37037 ft | 520 kts | 58° |
| 2026-04-25 19:18 | -37.82370 | -65.46531 | 37038 ft | 520 kts | 58° |
| 2026-04-25 19:18 | -37.78879 | -65.38522 | 37020 ft | 520 kts | 58° |
| 2026-04-25 19:19 | -37.75385 | -65.30514 | 37035 ft | 520 kts | 58° |
| 2026-04-25 19:19 | -37.71883 | -65.22527 | 37027 ft | 520 kts | 58° |
| 2026-04-25 19:20 | -37.68369 | -65.14541 | 37030 ft | 520 kts | 58° |
| 2026-04-25 19:20 | -37.64866 | -65.06569 | 37031 ft | 520 kts | 58° |
| 2026-04-25 19:21 | -37.61349 | -64.98595 | 37036 ft | 520 kts | 58° |
| 2026-04-25 19:21 | -37.56053 | -64.86667 | 37035 ft | 520 kts | 58° |
| 2026-04-25 19:22 | -37.52520 | -64.78721 | 37030 ft | 520 kts | 58° |
| 2026-04-25 19:23 | -37.47212 | -64.66827 | 37021 ft | 520 kts | 57° |
| 2026-04-25 19:23 | -37.41895 | -64.54943 | 37029 ft | 519 kts | 57° |
| 2026-04-25 19:24 | -37.38339 | -64.47037 | 37020 ft | 519 kts | 57° |
| 2026-04-25 19:25 | -37.31201 | -64.31225 | 36997 ft | 520 kts | 57° |
| 2026-04-25 19:25 | -37.27592 | -64.23351 | 37016 ft | 519 kts | 57° |
| 2026-04-25 19:26 | -37.23985 | -64.15494 | 37009 ft | 521 kts | 57° |
| 2026-04-25 19:26 | -37.20331 | -64.07564 | 37006 ft | 528 kts | 56° |
| 2026-04-25 19:27 | -37.17866 | -64.02223 | 37003 ft | 530 kts | 56° |
| 2026-04-25 19:27 | -37.12958 | -63.91561 | 36999 ft | 530 kts | 56° |
| 2026-04-25 19:28 | -37.09265 | -63.83574 | 37004 ft | 530 kts | 56° |
| 2026-04-25 19:28 | -37.05547 | -63.75578 | 37011 ft | 531 kts | 56° |
| 2026-04-25 19:29 | -37.01825 | -63.67598 | 37025 ft | 531 kts | 56° |
| 2026-04-25 19:29 | -36.98098 | -63.59604 | 37027 ft | 531 kts | 56° |
| 2026-04-25 19:30 | -36.94381 | -63.51626 | 37026 ft | 531 kts | 56° |
| 2026-04-25 19:30 | -36.90642 | -63.43642 | 36992 ft | 532 kts | 56° |
| 2026-04-25 19:31 | -36.86901 | -63.35680 | 37021 ft | 532 kts | 55° |
| 2026-04-25 19:31 | -36.83143 | -63.27704 | 37023 ft | 532 kts | 55° |
| 2026-04-25 19:32 | -36.79386 | -63.19746 | 37023 ft | 532 kts | 55° |
| 2026-04-25 19:32 | -36.76871 | -63.14433 | 37023 ft | 532 kts | 55° |
| 2026-04-25 19:33 | -36.71855 | -63.03847 | 37024 ft | 533 kts | 55° |
| 2026-04-25 19:33 | -36.68081 | -62.95896 | 37026 ft | 533 kts | 55° |
| 2026-04-25 19:34 | -36.64297 | -62.87953 | 37026 ft | 533 kts | 55° |
| 2026-04-25 19:34 | -36.61151 | -62.81364 | 37015 ft | 533 kts | 54° |
| 2026-04-25 19:35 | -36.57359 | -62.73435 | 37019 ft | 533 kts | 54° |
| 2026-04-25 19:35 | -36.53550 | -62.65510 | 37022 ft | 534 kts | 54° |
| 2026-04-25 19:36 | -36.49737 | -62.57587 | 37029 ft | 534 kts | 54° |
| 2026-04-25 19:36 | -36.45912 | -62.49670 | 36984 ft | 535 kts | 54° |
| 2026-04-25 19:37 | -36.42077 | -62.41744 | 36990 ft | 536 kts | 54° |
| 2026-04-25 19:37 | -36.38235 | -62.33800 | 37007 ft | 537 kts | 54° |
| 2026-04-25 19:38 | -36.34381 | -62.25853 | 37015 ft | 537 kts | 54° |
| 2026-04-25 19:38 | -36.30518 | -62.17916 | 37013 ft | 538 kts | 54° |
| 2026-04-25 19:39 | -36.26642 | -62.09968 | 37016 ft | 539 kts | 53° |
| 2026-04-25 19:39 | -36.22758 | -62.02020 | 37023 ft | 539 kts | 53° |
| 2026-04-25 19:40 | -36.18859 | -61.94083 | 37026 ft | 540 kts | 53° |
| 2026-04-25 19:40 | -36.14984 | -61.86187 | 37020 ft | 540 kts | 53° |
| 2026-04-25 19:41 | -36.11086 | -61.78247 | 37025 ft | 540 kts | 53° |
| 2026-04-25 19:41 | -36.07817 | -61.71604 | 37027 ft | 540 kts | 53° |
| 2026-04-25 19:42 | -36.03244 | -61.62335 | 37027 ft | 540 kts | 53° |
| 2026-04-25 19:42 | -35.99340 | -61.54447 | 36991 ft | 541 kts | 53° |
| 2026-04-25 19:43 | -35.95404 | -61.46512 | 37005 ft | 542 kts | 53° |
| 2026-04-25 19:43 | -35.91470 | -61.38561 | 37019 ft | 543 kts | 53° |
| 2026-04-25 19:44 | -35.87522 | -61.30617 | 37020 ft | 543 kts | 53° |
| 2026-04-25 19:44 | -35.83582 | -61.22678 | 37027 ft | 543 kts | 53° |
| 2026-04-25 19:45 | -35.79650 | -61.14715 | 37029 ft | 543 kts | 53° |
| 2026-04-25 19:45 | -35.75720 | -61.06764 | 37026 ft | 543 kts | 53° |
| 2026-04-25 19:46 | -35.71779 | -60.98835 | 37018 ft | 544 kts | 52° |
| 2026-04-25 19:46 | -35.67822 | -60.90905 | 37027 ft | 544 kts | 52° |
| 2026-04-25 19:47 | -35.63856 | -60.82987 | 37024 ft | 544 kts | 52° |
| 2026-04-25 19:47 | -35.59885 | -60.75062 | 37015 ft | 544 kts | 52° |
| 2026-04-25 19:48 | -35.55916 | -60.67146 | 36961 ft | 544 kts | 52° |
| 2026-04-25 19:48 | -35.51932 | -60.59240 | 36985 ft | 545 kts | 52° |
| 2026-04-25 19:49 | -35.48612 | -60.52654 | 36999 ft | 546 kts | 52° |
| 2026-04-25 19:49 | -35.43973 | -60.43448 | 37008 ft | 546 kts | 51° |
| 2026-04-25 19:50 | -35.37952 | -60.31578 | 37015 ft | 546 kts | 51° |
| 2026-04-25 19:51 | -35.33927 | -60.23671 | 37017 ft | 547 kts | 51° |
| 2026-04-25 19:51 | -35.29915 | -60.15766 | 36998 ft | 547 kts | 51° |
| 2026-04-25 19:52 | -35.25893 | -60.07858 | 37010 ft | 547 kts | 51° |
| 2026-04-25 19:52 | -35.21858 | -59.99960 | 37013 ft | 547 kts | 51° |
| 2026-04-25 19:53 | -35.17810 | -59.92083 | 37012 ft | 547 kts | 51° |
| 2026-04-25 19:53 | -35.13757 | -59.84218 | 36992 ft | 547 kts | 50° |
| 2026-04-25 19:54 | -35.09702 | -59.76357 | 36999 ft | 547 kts | 50° |
| 2026-04-25 19:54 | -35.05646 | -59.68488 | 36975 ft | 548 kts | 50° |
| 2026-04-25 19:55 | -35.02258 | -59.60063 | 36965 ft | 562 kts | 68° |
| 2026-04-25 19:55 | -35.00457 | -59.50767 | 36980 ft | 567 kts | 74° |
| 2026-04-25 19:56 | -34.98742 | -59.41307 | 36980 ft | 568 kts | 73° |
| 2026-04-25 19:56 | -34.97020 | -59.31908 | 36988 ft | 569 kts | 73° |
| 2026-04-25 19:57 | -34.95311 | -59.22548 | 37008 ft | 569 kts | 73° |
| 2026-04-25 19:57 | -34.93575 | -59.13136 | 36999 ft | 569 kts | 73° |
| 2026-04-25 19:58 | -34.91838 | -59.03725 | 36998 ft | 569 kts | 73° |
| 2026-04-25 19:58 | -34.90091 | -58.94329 | 36984 ft | 569 kts | 73° |
| 2026-04-25 19:59 | -34.88328 | -58.84929 | 36995 ft | 569 kts | 73° |
| 2026-04-25 19:59 | -34.86563 | -58.75531 | 36991 ft | 569 kts | 73° |
| 2026-04-25 20:00 | -34.84792 | -58.66141 | 36992 ft | 569 kts | 73° |
| 2026-04-25 20:00 | -34.83021 | -58.56744 | 36995 ft | 569 kts | 73° |
| 2026-04-25 20:01 | -34.81272 | -58.42387 | 36973 ft | 573 kts | 80° |
| 2026-04-25 20:01 | -34.80287 | -58.32773 | 36983 ft | 573 kts | 80° |
| 2026-04-25 20:02 | -34.79290 | -58.23149 | 36988 ft | 573 kts | 80° |
| 2026-04-25 20:02 | -34.78284 | -58.13530 | 36973 ft | 573 kts | 79° |
| 2026-04-25 20:03 | -34.77264 | -58.03916 | 36987 ft | 573 kts | 79° |
| 2026-04-25 20:03 | -34.76248 | -57.94353 | 36994 ft | 574 kts | 79° |
| 2026-04-25 20:04 | -34.75217 | -57.84741 | 36978 ft | 573 kts | 79° |
| 2026-04-25 20:04 | -34.74177 | -57.75134 | 37065 ft | 573 kts | 79° |
| 2026-04-25 20:05 | -34.73655 | -57.70349 | 36944 ft | 571 kts | 79° |
| 2026-04-25 20:05 | -34.73133 | -57.65575 | 36934 ft | 569 kts | 79° |
| 2026-04-25 20:05 | -34.72087 | -57.56022 | 36966 ft | 571 kts | 80° |
| 2026-04-25 20:06 | -34.72066 | -57.46361 | 36981 ft | 574 kts | 96° |
| 2026-04-25 20:06 | -34.72899 | -57.36694 | 36966 ft | 575 kts | 95° |
| 2026-04-25 20:07 | -34.73702 | -57.27019 | 36985 ft | 575 kts | 95° |
| 2026-04-25 20:07 | -34.74488 | -57.17340 | 36995 ft | 576 kts | 95° |
| 2026-04-25 20:08 | -34.75269 | -57.07653 | 36973 ft | 576 kts | 95° |
| 2026-04-25 20:08 | -34.76057 | -56.97965 | 36983 ft | 574 kts | 95° |
| 2026-04-25 20:09 | -34.76835 | -56.88293 | 36988 ft | 575 kts | 95° |
| 2026-04-25 20:09 | -34.77602 | -56.78614 | 36976 ft | 575 kts | 95° |
| 2026-04-25 20:10 | -34.78352 | -56.68931 | 36989 ft | 575 kts | 95° |
| 2026-04-25 20:10 | -34.79096 | -56.59234 | 36995 ft | 575 kts | 95° |
| 2026-04-25 20:11 | -34.79829 | -56.49547 | 37026 ft | 575 kts | 94° |
| 2026-04-25 20:11 | -34.80553 | -56.39881 | 36980 ft | 574 kts | 95° |
| 2026-04-25 20:12 | -34.81275 | -56.30210 | 36962 ft | 574 kts | 94° |
| 2026-04-25 20:12 | -34.81752 | -56.23735 | 36973 ft | 574 kts | 94° |
| 2026-04-25 20:13 | -34.82046 | -56.10875 | 36987 ft | 568 kts | 77° |
| 2026-04-25 20:13 | -34.81191 | -56.06211 | 36991 ft | 561 kts | 66° |
| 2026-04-25 20:13 | -34.79776 | -56.01844 | 36990 ft | 551 kts | 56° |
| 2026-04-25 20:14 | -34.77872 | -55.97860 | 36990 ft | 539 kts | 46° |
| 2026-04-25 20:14 | -34.75555 | -55.94347 | 36989 ft | 526 kts | 36° |
| 2026-04-25 20:14 | -34.70217 | -55.88453 | 36984 ft | 517 kts | 31° |
| 2026-04-25 20:15 | -34.64814 | -55.82658 | 36983 ft | 518 kts | 31° |
| 2026-04-25 20:15 | -34.59409 | -55.76850 | 36974 ft | 519 kts | 31° |
| 2026-04-25 20:16 | -34.54005 | -55.71051 | 36935 ft | 519 kts | 31° |
| 2026-04-25 20:16 | -34.49509 | -55.66243 | 36970 ft | 519 kts | 31° |
| 2026-04-25 20:17 | -34.44091 | -55.60466 | 36982 ft | 518 kts | 31° |
| 2026-04-25 20:17 | -34.38672 | -55.54700 | 36987 ft | 518 kts | 31° |
| 2026-04-25 20:18 | -34.33256 | -55.48947 | 36971 ft | 518 kts | 31° |
| 2026-04-25 20:18 | -34.27837 | -55.43173 | 36986 ft | 518 kts | 31° |
| 2026-04-25 20:19 | -34.22425 | -55.37424 | 36950 ft | 518 kts | 30° |
| 2026-04-25 20:19 | -34.16993 | -55.31703 | 36971 ft | 518 kts | 30° |
| 2026-04-25 20:20 | -34.11565 | -55.25975 | 36959 ft | 518 kts | 30° |
| 2026-04-25 20:20 | -34.06139 | -55.20240 | 36981 ft | 519 kts | 30° |
| 2026-04-25 20:21 | -34.00704 | -55.14507 | 36982 ft | 519 kts | 30° |
| 2026-04-25 20:21 | -33.95254 | -55.08785 | 36983 ft | 519 kts | 30° |
| 2026-04-25 20:22 | -33.90728 | -55.04038 | 36988 ft | 519 kts | 30° |
| 2026-04-25 20:22 | -33.84359 | -54.97356 | 36939 ft | 520 kts | 30° |
| 2026-04-25 20:23 | -33.78905 | -54.91637 | 36967 ft | 520 kts | 30° |
| 2026-04-25 20:23 | -33.73481 | -54.85963 | 36980 ft | 520 kts | 30° |
| 2026-04-25 20:24 | -33.68009 | -54.80270 | 36981 ft | 521 kts | 30° |
| 2026-04-25 20:24 | -33.62524 | -54.74571 | 36962 ft | 521 kts | 30° |
| 2026-04-25 20:25 | -33.57053 | -54.68882 | 36937 ft | 521 kts | 30° |
| 2026-04-25 20:25 | -33.51571 | -54.63187 | 36966 ft | 521 kts | 30° |
| 2026-04-25 20:26 | -33.46073 | -54.57498 | 36982 ft | 522 kts | 29° |
| 2026-04-25 20:26 | -33.40579 | -54.51825 | 36992 ft | 522 kts | 29° |
| 2026-04-25 20:27 | -33.35071 | -54.46151 | 36982 ft | 522 kts | 29° |
| 2026-04-25 20:27 | -33.29567 | -54.40475 | 36987 ft | 522 kts | 29° |
| 2026-04-25 20:28 | -33.24049 | -54.34796 | 36999 ft | 522 kts | 29° |
| 2026-04-25 20:28 | -33.18543 | -54.29137 | 36998 ft | 522 kts | 29° |
| 2026-04-25 20:29 | -33.13030 | -54.23484 | 36971 ft | 522 kts | 29° |
| 2026-04-25 20:29 | -33.07515 | -54.17850 | 36981 ft | 522 kts | 29° |
| 2026-04-25 20:30 | -33.01994 | -54.12221 | 36990 ft | 522 kts | 29° |
| 2026-04-25 20:30 | -32.96471 | -54.06591 | 36996 ft | 522 kts | 29° |
| 2026-04-25 20:31 | -32.90960 | -54.00978 | 36948 ft | 522 kts | 29° |
| 2026-04-25 20:31 | -32.85436 | -53.95367 | 36940 ft | 522 kts | 29° |
| 2026-04-25 20:32 | -32.79903 | -53.89750 | 36968 ft | 523 kts | 29° |
| 2026-04-25 20:32 | -32.74364 | -53.84141 | 36987 ft | 524 kts | 29° |
| 2026-04-25 20:33 | -32.68814 | -53.78528 | 36994 ft | 524 kts | 29° |
| 2026-04-25 20:33 | -32.64199 | -53.73877 | 36988 ft | 524 kts | 28° |
| 2026-04-25 20:34 | -32.57690 | -53.67330 | 36937 ft | 525 kts | 28° |
| 2026-04-25 20:34 | -32.52117 | -53.61732 | 36969 ft | 525 kts | 28° |
| 2026-04-25 20:35 | -32.46536 | -53.56114 | 36987 ft | 527 kts | 28° |
| 2026-04-25 20:35 | -32.41044 | -53.50319 | 36996 ft | 531 kts | 31° |
| 2026-04-25 20:36 | -32.35639 | -53.44332 | 37002 ft | 533 kts | 32° |
| 2026-04-25 20:36 | -32.30223 | -53.38360 | 37004 ft | 532 kts | 31° |
| 2026-04-25 20:37 | -32.24805 | -53.32512 | 36970 ft | 531 kts | 30° |
| 2026-04-25 20:37 | -32.19333 | -53.26654 | 36985 ft | 531 kts | 30° |
| 2026-04-25 20:38 | -32.13867 | -53.20786 | 36967 ft | 532 kts | 30° |
| 2026-04-25 20:38 | -32.08351 | -53.14853 | 36990 ft | 533 kts | 30° |
| 2026-04-25 20:39 | -32.02872 | -53.08972 | 36999 ft | 533 kts | 30° |
| 2026-04-25 20:39 | -31.98307 | -53.04086 | 37000 ft | 533 kts | 30° |
| 2026-04-25 20:40 | -31.91922 | -52.97269 | 36991 ft | 534 kts | 30° |
| 2026-04-25 20:40 | -31.86411 | -52.91394 | 36960 ft | 535 kts | 30° |
| 2026-04-25 20:41 | -31.80854 | -52.85466 | 36968 ft | 536 kts | 30° |
| 2026-04-25 20:41 | -31.75355 | -52.79613 | 36978 ft | 537 kts | 30° |
| 2026-04-25 20:42 | -31.69806 | -52.73735 | 36968 ft | 537 kts | 29° |
| 2026-04-25 20:42 | -31.64248 | -52.67847 | 36977 ft | 538 kts | 29° |
| 2026-04-25 20:43 | -31.58689 | -52.61958 | 36988 ft | 539 kts | 29° |
| 2026-04-25 20:43 | -31.53119 | -52.56075 | 36973 ft | 539 kts | 29° |
| 2026-04-25 20:44 | -31.47538 | -52.50184 | 36967 ft | 540 kts | 29° |
| 2026-04-25 20:44 | -31.41954 | -52.44291 | 36980 ft | 541 kts | 29° |
| 2026-04-25 20:45 | -31.36368 | -52.38407 | 36996 ft | 541 kts | 29° |
| 2026-04-25 20:45 | -31.30762 | -52.32517 | 36995 ft | 541 kts | 29° |
| 2026-04-25 20:46 | -31.25166 | -52.26642 | 36964 ft | 541 kts | 30° |
| 2026-04-25 20:46 | -31.19565 | -52.20776 | 36940 ft | 541 kts | 29° |
| 2026-04-25 20:47 | -31.13954 | -52.14907 | 36972 ft | 542 kts | 29° |
| 2026-04-25 20:47 | -31.08342 | -52.09046 | 36984 ft | 542 kts | 29° |
| 2026-04-25 20:48 | -31.02722 | -52.03182 | 36967 ft | 542 kts | 29° |
| 2026-04-25 20:48 | -30.97098 | -51.97329 | 36975 ft | 542 kts | 29° |
| 2026-04-25 20:49 | -30.91474 | -51.91485 | 36990 ft | 542 kts | 29° |
| 2026-04-25 20:49 | -30.85840 | -51.85641 | 36953 ft | 542 kts | 29° |
| 2026-04-25 20:50 | -30.80211 | -51.79808 | 36960 ft | 542 kts | 30° |
| 2026-04-25 20:50 | -30.74574 | -51.73989 | 36977 ft | 542 kts | 29° |
| 2026-04-25 20:51 | -30.68930 | -51.68172 | 36985 ft | 542 kts | 29° |
| 2026-04-25 20:51 | -30.63277 | -51.62342 | 36988 ft | 543 kts | 30° |
| 2026-04-25 20:52 | -30.59541 | -51.58495 | 36982 ft | 542 kts | 29° |
| 2026-04-25 20:52 | -30.51984 | -51.50734 | 36924 ft | 542 kts | 29° |
| 2026-04-25 20:53 | -30.46290 | -51.45022 | 36962 ft | 540 kts | 28° |
| 2026-04-25 20:53 | -30.40569 | -51.39373 | 36986 ft | 540 kts | 28° |
| 2026-04-25 20:54 | -30.34857 | -51.33710 | 36982 ft | 540 kts | 29° |
| 2026-04-25 20:54 | -30.29196 | -51.28075 | 36982 ft | 540 kts | 29° |
| 2026-04-25 20:55 | -30.23462 | -51.22371 | 36980 ft | 540 kts | 29° |
| 2026-04-25 20:55 | -30.17800 | -51.16752 | 36905 ft | 540 kts | 29° |
| 2026-04-25 20:56 | -30.12067 | -51.11083 | 36936 ft | 539 kts | 29° |
| 2026-04-25 20:56 | -30.06406 | -51.05490 | 36946 ft | 539 kts | 29° |
| 2026-04-25 20:57 | -30.01638 | -51.00789 | 36973 ft | 538 kts | 29° |
| 2026-04-25 20:57 | -29.95010 | -50.94272 | 36976 ft | 538 kts | 29° |
| 2026-04-25 20:58 | -29.89323 | -50.88668 | 36982 ft | 538 kts | 29° |
| 2026-04-25 20:58 | -29.84499 | -50.84085 | 36982 ft | 533 kts | 26° |
| 2026-04-25 20:59 | -29.78597 | -50.78976 | 36988 ft | 530 kts | 24° |
| 2026-04-25 20:59 | -29.72636 | -50.73977 | 36999 ft | 530 kts | 24° |
| 2026-04-25 21:00 | -29.67704 | -50.69763 | 36999 ft | 531 kts | 25° |
| 2026-04-25 21:01 | -29.57912 | -50.61206 | 36994 ft | 532 kts | 26° |
| 2026-04-25 21:01 | -29.52083 | -50.55920 | 36959 ft | 543 kts | 34° |
| 2026-04-25 21:02 | -29.46815 | -50.49618 | 36994 ft | 547 kts | 37° |
| 2026-04-25 21:02 | -29.41585 | -50.43273 | 37008 ft | 547 kts | 37° |
| 2026-04-25 21:03 | -29.36385 | -50.36966 | 37020 ft | 547 kts | 37° |
| 2026-04-25 21:03 | -29.31119 | -50.30602 | 37021 ft | 546 kts | 37° |
| 2026-04-25 21:04 | -29.25917 | -50.24332 | 37020 ft | 546 kts | 37° |
| 2026-04-25 21:04 | -29.20689 | -50.18027 | 37006 ft | 546 kts | 37° |
| 2026-04-25 21:05 | -29.15452 | -50.11728 | 37004 ft | 545 kts | 37° |
| 2026-04-25 21:05 | -29.10215 | -50.05457 | 36983 ft | 544 kts | 37° |
| 2026-04-25 21:06 | -29.04985 | -49.99197 | 37009 ft | 544 kts | 37° |
| 2026-04-25 21:06 | -28.99767 | -49.92945 | 37009 ft | 545 kts | 38° |
| 2026-04-25 21:07 | -28.94538 | -49.86692 | 36989 ft | 543 kts | 37° |
| 2026-04-25 21:07 | -28.89313 | -49.80464 | 37008 ft | 543 kts | 37° |
| 2026-04-25 21:08 | -28.84189 | -49.74109 | 36989 ft | 545 kts | 40° |
| 2026-04-25 21:08 | -28.79149 | -49.67647 | 36983 ft | 545 kts | 40° |
| 2026-04-25 21:09 | -28.71540 | -49.58034 | 36971 ft | 544 kts | 39° |
| 2026-04-25 21:09 | -28.66439 | -49.51669 | 36991 ft | 544 kts | 39° |
| 2026-04-25 21:10 | -28.61358 | -49.45297 | 36995 ft | 544 kts | 40° |
| 2026-04-25 21:10 | -28.56272 | -49.38922 | 36996 ft | 543 kts | 40° |
| 2026-04-25 21:11 | -28.51188 | -49.32565 | 36992 ft | 543 kts | 40° |
| 2026-04-25 21:11 | -28.46102 | -49.26226 | 36988 ft | 543 kts | 40° |
| 2026-04-25 21:12 | -28.41008 | -49.19885 | 36990 ft | 543 kts | 40° |
| 2026-04-25 21:12 | -28.36768 | -49.14614 | 36989 ft | 543 kts | 40° |
| 2026-04-25 21:13 | -28.30811 | -49.07220 | 36970 ft | 542 kts | 40° |
| 2026-04-25 21:13 | -28.25721 | -49.00917 | 36986 ft | 541 kts | 40° |
| 2026-04-25 21:14 | -28.20670 | -48.94590 | 36998 ft | 541 kts | 40° |
| 2026-04-25 21:14 | -28.15639 | -48.88244 | 36995 ft | 540 kts | 40° |
| 2026-04-25 21:15 | -28.10608 | -48.81918 | 36989 ft | 540 kts | 40° |
| 2026-04-25 21:15 | -28.05607 | -48.75663 | 36984 ft | 539 kts | 40° |
| 2026-04-25 21:16 | -28.00564 | -48.69382 | 36980 ft | 539 kts | 40° |
| 2026-04-25 21:16 | -27.95480 | -48.63063 | 36964 ft | 539 kts | 40° |
| 2026-04-25 21:17 | -27.90469 | -48.56830 | 36950 ft | 539 kts | 40° |
| 2026-04-25 21:17 | -27.85427 | -48.50562 | 36963 ft | 538 kts | 40° |
| 2026-04-25 21:18 | -27.80391 | -48.44314 | 36955 ft | 537 kts | 40° |
| 2026-04-25 21:18 | -27.75361 | -48.38091 | 36954 ft | 535 kts | 40° |
| 2026-04-25 21:19 | -27.70343 | -48.31895 | 36961 ft | 534 kts | 40° |
| 2026-04-25 21:19 | -27.65329 | -48.25706 | 36967 ft | 534 kts | 40° |
| 2026-04-25 21:20 | -27.61167 | -48.20569 | 36961 ft | 533 kts | 40° |
| 2026-04-25 21:20 | -27.55314 | -48.13369 | 36972 ft | 533 kts | 40° |
| 2026-04-25 21:21 | -27.50307 | -48.07206 | 36955 ft | 533 kts | 40° |
| 2026-04-25 21:21 | -27.45300 | -48.01054 | 36954 ft | 532 kts | 40° |
| 2026-04-25 21:22 | -27.40293 | -47.94926 | 36971 ft | 532 kts | 40° |
| 2026-04-25 21:22 | -27.35311 | -47.88842 | 36966 ft | 532 kts | 40° |
| 2026-04-25 21:23 | -27.30266 | -47.82743 | 36971 ft | 532 kts | 40° |
| 2026-04-25 21:23 | -27.25223 | -47.76661 | 36954 ft | 532 kts | 40° |
| 2026-04-25 21:24 | -27.20190 | -47.70578 | 36961 ft | 532 kts | 40° |
| 2026-04-25 21:24 | -27.15151 | -47.64486 | 36966 ft | 531 kts | 40° |
| 2026-04-25 21:25 | -27.10117 | -47.58412 | 36922 ft | 531 kts | 41° |
| 2026-04-25 21:25 | -27.05091 | -47.52353 | 36952 ft | 530 kts | 40° |
| 2026-04-25 21:26 | -27.00057 | -47.46309 | 36957 ft | 529 kts | 40° |
| 2026-04-25 21:26 | -26.95033 | -47.40288 | 36963 ft | 528 kts | 40° |
| 2026-04-25 21:27 | -26.90006 | -47.34264 | 36953 ft | 528 kts | 40° |
| 2026-04-25 21:27 | -26.84986 | -47.28264 | 36958 ft | 527 kts | 40° |
| 2026-04-25 21:28 | -26.79960 | -47.22282 | 36960 ft | 527 kts | 40° |
| 2026-04-25 21:28 | -26.74942 | -47.16305 | 36952 ft | 527 kts | 40° |
| 2026-04-25 21:29 | -26.69950 | -47.10355 | 36937 ft | 527 kts | 41° |
| 2026-04-25 21:29 | -26.64933 | -47.04390 | 36958 ft | 526 kts | 40° |
| 2026-04-25 21:30 | -26.59907 | -46.98453 | 36954 ft | 525 kts | 40° |
| 2026-04-25 21:30 | -26.55697 | -46.93496 | 36950 ft | 524 kts | 40° |
| 2026-04-25 21:31 | -26.49869 | -46.86631 | 36955 ft | 523 kts | 40° |
| 2026-04-25 21:31 | -26.44851 | -46.80750 | 36949 ft | 523 kts | 40° |
| 2026-04-25 21:32 | -26.39831 | -46.74873 | 36953 ft | 523 kts | 40° |
| 2026-04-25 21:32 | -26.34811 | -46.68994 | 36954 ft | 523 kts | 40° |
| 2026-04-25 21:33 | -26.29785 | -46.63127 | 36939 ft | 523 kts | 40° |
| 2026-04-25 21:33 | -26.24758 | -46.57267 | 36948 ft | 523 kts | 40° |
| 2026-04-25 21:34 | -26.19734 | -46.51398 | 36948 ft | 523 kts | 40° |
| 2026-04-25 21:34 | -26.14704 | -46.45548 | 36953 ft | 523 kts | 40° |
| 2026-04-25 21:35 | -26.09664 | -46.39703 | 36953 ft | 523 kts | 40° |
| 2026-04-25 21:35 | -26.04634 | -46.33858 | 36946 ft | 523 kts | 40° |
| 2026-04-25 21:36 | -25.99596 | -46.28017 | 36955 ft | 523 kts | 40° |
| 2026-04-25 21:36 | -25.94558 | -46.22181 | 36954 ft | 523 kts | 40° |
| 2026-04-25 21:37 | -25.91223 | -46.18318 | 36955 ft | 523 kts | 40° |
| 2026-04-25 21:37 | -25.84484 | -46.10521 | 36957 ft | 523 kts | 40° |
| 2026-04-25 21:38 | -25.79435 | -46.04703 | 36952 ft | 523 kts | 40° |
| 2026-04-25 21:38 | -25.74408 | -45.98927 | 36959 ft | 523 kts | 40° |
| 2026-04-25 21:39 | -25.69363 | -45.93127 | 36951 ft | 522 kts | 40° |
| 2026-04-25 21:39 | -25.64324 | -45.87322 | 36954 ft | 522 kts | 40° |
| 2026-04-25 21:40 | -25.59280 | -45.81541 | 36953 ft | 522 kts | 40° |
| 2026-04-25 21:40 | -25.54232 | -45.75762 | 36950 ft | 522 kts | 40° |
| 2026-04-25 21:41 | -25.50007 | -45.70920 | 36947 ft | 522 kts | 41° |
| 2026-04-25 21:41 | -25.44139 | -45.64216 | 36957 ft | 521 kts | 41° |
| 2026-04-25 21:42 | -25.39915 | -45.59386 | 36964 ft | 521 kts | 41° |
| 2026-04-25 21:42 | -25.34863 | -45.53626 | 36958 ft | 521 kts | 41° |
| 2026-04-25 21:43 | -25.29812 | -45.47883 | 36963 ft | 521 kts | 41° |
| 2026-04-25 21:43 | -25.24756 | -45.42144 | 36963 ft | 521 kts | 41° |
| 2026-04-25 21:44 | -25.19705 | -45.36406 | 36957 ft | 521 kts | 41° |
| 2026-04-25 21:45 | -25.12124 | -45.27796 | 36951 ft | 521 kts | 41° |
| 2026-04-25 21:45 | -25.07072 | -45.22069 | 36963 ft | 521 kts | 41° |
| 2026-04-25 21:46 | -25.02015 | -45.16357 | 36960 ft | 520 kts | 41° |
| 2026-04-25 21:46 | -24.96961 | -45.10662 | 36962 ft | 520 kts | 41° |
| 2026-04-25 21:47 | -24.91899 | -45.04956 | 36969 ft | 519 kts | 41° |
| 2026-04-25 21:47 | -24.86852 | -44.99271 | 36964 ft | 519 kts | 41° |
| 2026-04-25 21:48 | -24.81802 | -44.93591 | 36938 ft | 519 kts | 41° |
| 2026-04-25 21:48 | -24.76789 | -44.87960 | 36841 ft | 506 kts | 41° |
| 2026-04-25 21:48 | -24.74372 | -44.85242 | 36439 ft | 502 kts | 41° |
| 2026-04-25 21:49 | -24.71935 | -44.82505 | 35906 ft | 500 kts | 41° |
| 2026-04-25 21:49 | -24.69496 | -44.79773 | 35326 ft | 501 kts | 41° |
| 2026-04-25 21:49 | -24.67046 | -44.77031 | 34691 ft | 503 kts | 41° |
| 2026-04-25 21:49 | -24.64590 | -44.74284 | 34066 ft | 504 kts | 41° |
| 2026-04-25 21:50 | -24.62131 | -44.71537 | 33392 ft | 505 kts | 42° |
| 2026-04-25 21:50 | -24.59666 | -44.68787 | 32685 ft | 507 kts | 42° |
| 2026-04-25 21:50 | -24.57189 | -44.66022 | 31956 ft | 508 kts | 42° |
| 2026-04-25 21:50 | -24.55511 | -44.64145 | 31455 ft | 510 kts | 42° |
| 2026-04-25 21:51 | -24.52212 | -44.60455 | 30485 ft | 512 kts | 42° |
| 2026-04-25 21:51 | -24.49585 | -44.57827 | 29718 ft | 509 kts | 33° |
| 2026-04-25 21:51 | -24.46620 | -44.55752 | 28901 ft | 503 kts | 22° |
| 2026-04-25 21:51 | -24.43506 | -44.54026 | 28307 ft | 498 kts | 22° |
| 2026-04-25 21:52 | -24.40433 | -44.52312 | 27718 ft | 494 kts | 22° |
| 2026-04-25 21:52 | -24.37381 | -44.50598 | 27126 ft | 490 kts | 22° |
| 2026-04-25 21:52 | -24.34365 | -44.48900 | 26545 ft | 485 kts | 22° |
| 2026-04-25 21:52 | -24.31371 | -44.47211 | 25967 ft | 481 kts | 23° |
| 2026-04-25 21:53 | -24.28407 | -44.45542 | 25407 ft | 477 kts | 23° |
| 2026-04-25 21:53 | -24.25464 | -44.43895 | 24859 ft | 473 kts | 22° |
| 2026-04-25 21:53 | -24.22547 | -44.42270 | 24317 ft | 469 kts | 22° |
| 2026-04-25 21:53 | -24.19648 | -44.40659 | 23782 ft | 465 kts | 22° |
| 2026-04-25 21:54 | -24.16772 | -44.39061 | 23207 ft | 462 kts | 22° |
| 2026-04-25 21:54 | -24.13914 | -44.37471 | 22607 ft | 457 kts | 22° |
| 2026-04-25 21:54 | -24.11099 | -44.35895 | 22044 ft | 452 kts | 23° |
| 2026-04-25 21:54 | -24.08313 | -44.34329 | 21517 ft | 447 kts | 23° |
| 2026-04-25 21:55 | -24.05559 | -44.32783 | 21003 ft | 443 kts | 23° |
| 2026-04-25 21:55 | -24.02862 | -44.31273 | 20518 ft | 438 kts | 23° |
| 2026-04-25 21:55 | -24.00161 | -44.29766 | 20042 ft | 434 kts | 23° |
| 2026-04-25 21:55 | -23.97484 | -44.28279 | 19583 ft | 430 kts | 23° |
| 2026-04-25 21:56 | -23.94844 | -44.26764 | 19144 ft | 428 kts | 27° |
| 2026-04-25 21:56 | -23.93166 | -44.25555 | 18847 ft | 427 kts | 33° |
| 2026-04-25 21:56 | -23.90249 | -44.22702 | 18276 ft | 426 kts | 45° |
| 2026-04-25 21:56 | -23.88415 | -44.20164 | 17772 ft | 424 kts | 54° |
| 2026-04-25 21:57 | -23.86947 | -44.17381 | 17261 ft | 422 kts | 63° |
| 2026-04-25 21:57 | -23.85681 | -44.14510 | 16776 ft | 417 kts | 63° |
| 2026-04-25 21:57 | -23.84382 | -44.11697 | 16378 ft | 412 kts | 58° |
| 2026-04-25 21:57 | -23.82719 | -44.09144 | 16142 ft | 420 kts | 47° |
| 2026-04-25 21:58 | -23.80607 | -44.06914 | 15895 ft | 425 kts | 37° |
| 2026-04-25 21:58 | -23.78148 | -44.05134 | 15649 ft | 423 kts | 26° |
| 2026-04-25 21:58 | -23.75463 | -44.03885 | 15411 ft | 419 kts | 15° |
| 2026-04-25 21:58 | -23.72636 | -44.03190 | 15176 ft | 415 kts | 5° |
| 2026-04-25 21:59 | -23.69757 | -44.02961 | 14948 ft | 413 kts | 1° |
| 2026-04-25 21:59 | -23.66896 | -44.02782 | 14721 ft | 412 kts | 1° |
| 2026-04-25 21:59 | -23.64069 | -44.02603 | 14491 ft | 411 kts | 2° |
| 2026-04-25 22:00 | -23.58366 | -44.02239 | 14251 ft | 411 kts | 2° |
| 2026-04-25 22:00 | -23.55477 | -44.02053 | 14183 ft | 410 kts | 2° |
| 2026-04-25 22:00 | -23.52666 | -44.01871 | 14114 ft | 410 kts | 2° |
| 2026-04-25 22:00 | -23.49820 | -44.01687 | 14048 ft | 410 kts | 2° |
| 2026-04-25 22:01 | -23.46964 | -44.01502 | 13981 ft | 410 kts | 2° |
| 2026-04-25 22:01 | -23.44125 | -44.01322 | 13895 ft | 409 kts | 2° |
| 2026-04-25 22:01 | -23.41279 | -44.01143 | 13813 ft | 409 kts | 2° |
| 2026-04-25 22:01 | -23.39368 | -44.01025 | 13739 ft | 409 kts | 2° |
| 2026-04-25 22:02 | -23.35608 | -44.00792 | 13606 ft | 408 kts | 2° |
| 2026-04-25 22:02 | -23.32734 | -44.00612 | 13501 ft | 408 kts | 2° |
| 2026-04-25 22:02 | -23.29942 | -44.00437 | 13398 ft | 408 kts | 2° |
| 2026-04-25 22:02 | -23.27106 | -44.00262 | 13296 ft | 407 kts | 2° |
| 2026-04-25 22:03 | -23.24284 | -44.00090 | 13200 ft | 406 kts | 2° |
| 2026-04-25 22:03 | -23.21460 | -43.99913 | 13098 ft | 406 kts | 2° |
| 2026-04-25 22:03 | -23.18686 | -43.99734 | 12965 ft | 392 kts | 2° |
| 2026-04-25 22:03 | -23.16018 | -43.99559 | 12788 ft | 377 kts | 2° |
| 2026-04-25 22:04 | -23.13449 | -43.99391 | 12611 ft | 363 kts | 2° |
| 2026-04-25 22:04 | -23.10971 | -43.99235 | 12434 ft | 350 kts | 2° |
| 2026-04-25 22:04 | -23.08578 | -43.99086 | 12210 ft | 341 kts | 1° |
| 2026-04-25 22:04 | -23.06242 | -43.98937 | 11995 ft | 332 kts | 1° |
| 2026-04-25 22:05 | -23.03968 | -43.98792 | 11790 ft | 323 kts | 1° |
| 2026-04-25 22:05 | -23.01739 | -43.98653 | 11617 ft | 319 kts | 1° |
| 2026-04-25 22:05 | -22.99551 | -43.98520 | 11378 ft | 312 kts | 1° |
| 2026-04-25 22:05 | -22.97395 | -43.98344 | 11134 ft | 310 kts | 7° |
| 2026-04-25 22:06 | -22.95325 | -43.97730 | 10825 ft | 309 kts | 21° |
| 2026-04-25 22:06 | -22.93449 | -43.96602 | 10588 ft | 310 kts | 35° |
| 2026-04-25 22:06 | -22.91856 | -43.95026 | 10356 ft | 310 kts | 49° |
| 2026-04-25 22:06 | -22.90637 | -43.93099 | 10123 ft | 310 kts | 62° |
| 2026-04-25 22:07 | -22.89699 | -43.90997 | 9892 ft | 310 kts | 64° |
| 2026-04-25 22:07 | -22.89068 | -43.89576 | 9799 ft | 310 kts | 64° |
| 2026-04-25 22:07 | -22.87827 | -43.86797 | 9632 ft | 309 kts | 64° |
| 2026-04-25 22:07 | -22.86888 | -43.84701 | 9502 ft | 309 kts | 64° |
| 2026-04-25 22:08 | -22.85948 | -43.82609 | 9377 ft | 308 kts | 64° |
| 2026-04-25 22:08 | -22.85015 | -43.80521 | 9234 ft | 307 kts | 64° |
| 2026-04-25 22:08 | -22.84086 | -43.78437 | 9121 ft | 307 kts | 64° |
| 2026-04-25 22:08 | -22.83156 | -43.76357 | 8991 ft | 306 kts | 64° |
| 2026-04-25 22:09 | -22.82226 | -43.74288 | 8912 ft | 305 kts | 64° |
| 2026-04-25 22:09 | -22.81307 | -43.72220 | 8923 ft | 305 kts | 67° |
| 2026-04-25 22:09 | -22.80670 | -43.70013 | 8690 ft | 308 kts | 76° |
| 2026-04-25 22:09 | -22.80152 | -43.67787 | 8343 ft | 302 kts | 76° |
| 2026-04-25 22:10 | -22.79653 | -43.65598 | 8009 ft | 291 kts | 76° |
| 2026-04-25 22:10 | -22.79182 | -43.63535 | 7689 ft | 275 kts | 76° |
| 2026-04-25 22:10 | -22.78728 | -43.61562 | 7365 ft | 269 kts | 76° |
| 2026-04-25 22:10 | -22.78270 | -43.59591 | 7036 ft | 269 kts | 76° |
| 2026-04-25 22:11 | -22.77815 | -43.57626 | 6711 ft | 269 kts | 76° |
| 2026-04-25 22:11 | -22.77313 | -43.55678 | 6386 ft | 268 kts | 68° |
| 2026-04-25 22:11 | -22.76578 | -43.53813 | 5994 ft | 270 kts | 66° |
| 2026-04-25 22:11 | -22.75844 | -43.51970 | 5586 ft | 261 kts | 66° |
| 2026-04-25 22:12 | -22.75151 | -43.50218 | 5237 ft | 245 kts | 66° |
| 2026-04-25 22:12 | -22.74497 | -43.48567 | 4870 ft | 232 kts | 66° |
| 2026-04-25 22:12 | -22.73875 | -43.47006 | 4537 ft | 219 kts | 66° |
| 2026-04-25 22:12 | -22.73482 | -43.46019 | 4331 ft | 210 kts | 66° |
| 2026-04-25 22:13 | -22.72736 | -43.44142 | 3956 ft | 198 kts | 66° |
| 2026-04-25 22:13 | -22.72206 | -43.42777 | 3653 ft | 196 kts | 70° |
| 2026-04-25 22:13 | -22.72002 | -43.41324 | 3225 ft | 196 kts | 94° |
| 2026-04-25 22:13 | -22.72333 | -43.39916 | 2909 ft | 192 kts | 116° |
| 2026-04-25 22:14 | -22.73038 | -43.38748 | 2649 ft | 178 kts | 127° |
| 2026-04-25 22:14 | -22.73738 | -43.37691 | 2428 ft | 168 kts | 127° |
| 2026-04-25 22:14 | -22.74398 | -43.36696 | 2219 ft | 163 kts | 127° |
| 2026-04-25 22:14 | -22.75064 | -43.35692 | 2011 ft | 161 kts | 127° |
| 2026-04-25 22:15 | -22.75713 | -43.34715 | 1787 ft | 159 kts | 126° |
| 2026-04-25 22:15 | -22.76351 | -43.33753 | 1604 ft | 158 kts | 127° |
| 2026-04-25 22:15 | -22.76992 | -43.32786 | 1378 ft | 158 kts | 126° |
| 2026-04-25 22:16 | -22.78265 | -43.30866 | 997 ft | 156 kts | 126° |
| 2026-04-25 22:16 | -22.78897 | -43.29913 | 815 ft | 156 kts | 126° |
| 2026-04-25 22:16 | -22.79506 | -43.28994 | 632 ft | 146 kts | 126° |
| 2026-04-25 22:16 | -22.80086 | -43.28118 | 457 ft | 141 kts | 125° |
| 2026-04-25 22:17 | -22.80651 | -43.27263 | 290 ft | 138 kts | 126° |
| 2026-04-25 22:17 | -22.81198 | -43.26411 | 92 ft | 138 kts | 126° |
| 2026-04-25 22:17 | -22.81720 | -43.25644 | 23 ft | 98 kts | 126° |
| 2026-04-25 22:17 | -22.82010 | -43.25213 | 27 ft | 35 kts | 126° |
| 2026-04-25 22:18 | -22.82043 | -43.25057 | 23 ft | 21 kts | 88° |
| 2026-04-25 22:18 | -22.82044 | -43.24914 | 23 ft | 13 kts | 96° |
| 2026-04-25 22:18 | -22.82084 | -43.24830 | 23 ft | 14 kts | 125° |
| 2026-04-25 22:18 | -22.82100 | -43.24731 | 22 ft | 15 kts | 53° |
| 2026-04-25 22:19 | -22.82014 | -43.24660 | 23 ft | 15 kts | 36° |
| 2026-04-25 22:19 | -22.81918 | -43.24610 | 21 ft | 16 kts | 2° |
| 2026-04-25 22:19 | -22.81813 | -43.24562 | 22 ft | 17 kts | 17° |
| 2026-04-25 22:19 | -22.81722 | -43.24625 | 22 ft | 17 kts | 306° |
| 2026-04-25 22:20 | -22.81651 | -43.24732 | 22 ft | 18 kts | 306° |
| 2026-04-25 22:20 | -22.81577 | -43.24778 | 22 ft | 11 kts | 31° |
| 2026-04-25 22:20 | -22.81550 | -43.24754 | 23 ft | 0 kts | 39° |